Time;durP1;ratioP1;P1;durP2;ratioP2;P2;SDS_P1;SDS_P2;PMS_P1;PMS_P2;Temp;Humidity;BMP_temperature;BMP_pressure;BME280_temperature;BME280_humidity;BME280_pressure;Samples;Min_cycle;Max_cycle;Signal;HPM_P1;HPM_P2
2024/02/13 00:01:16;;;;;;;27.40;16.08;;;6.70;99.90;;;;;;5038779;28;20044;-75
2024/02/13 00:03:41;;;;;;;26.20;15.55;;;6.70;99.90;;;;;;5038482;28;20120;-72
2024/02/13 00:06:09;;;;;;;28.60;16.40;;;6.70;99.90;;;;;;5041385;28;20025;-75
2024/02/13 00:08:36;;;;;;;29.60;16.80;;;6.60;99.90;;;;;;5038766;28;20024;-76
2024/02/13 00:11:06;;;;;;;39.15;17.00;;;6.60;99.90;;;;;;5038669;28;20044;-76
2024/02/13 00:13:34;;;;;;;27.20;15.85;;;6.60;99.90;;;;;;5041969;28;20024;-74
2024/02/13 00:16:00;;;;;;;30.25;16.85;;;6.70;99.90;;;;;;5040300;28;20115;-74
2024/02/13 00:18:26;;;;;;;28.13;15.35;;;6.60;99.90;;;;;;5038588;28;20492;-73
2024/02/13 00:20:53;;;;;;;30.88;15.50;;;6.60;99.90;;;;;;5038272;28;20029;-80
2024/02/13 00:23:19;;;;;;;32.15;16.75;;;6.60;99.90;;;;;;5035578;28;20013;-77
2024/02/13 00:25:45;;;;;;;30.00;16.33;;;6.60;99.90;;;;;;5039388;28;20090;-74
2024/02/13 00:28:11;;;;;;;31.08;18.17;;;6.60;99.90;;;;;;5034361;28;20032;-81
2024/02/13 00:30:36;;;;;;;35.20;18.08;;;6.60;99.90;;;;;;5034277;28;20139;-81
2024/02/13 00:33:05;;;;;;;28.30;17.35;;;6.50;99.90;;;;;;5037832;28;20036;-77
2024/02/13 00:35:30;;;;;;;38.88;17.50;;;6.50;99.90;;;;;;5033521;28;20021;-79
2024/02/13 00:37:56;;;;;;;29.75;17.88;;;6.50;99.90;;;;;;5034816;28;20102;-73
2024/02/13 00:40:22;;;;;;;39.58;21.55;;;6.60;99.90;;;;;;5037155;28;20037;-74
2024/02/13 00:42:49;;;;;;;36.53;20.50;;;6.50;99.90;;;;;;5037176;28;20017;-79
2024/02/13 00:45:16;;;;;;;41.38;21.45;;;6.50;99.90;;;;;;5035219;28;20033;-74
2024/02/13 00:47:42;;;;;;;35.20;17.85;;;6.50;99.90;;;;;;5039371;28;20024;-71
2024/02/13 00:50:08;;;;;;;33.03;17.42;;;6.50;99.90;;;;;;5036670;28;20036;-73
2024/02/13 00:52:38;;;;;;;28.67;16.88;;;6.40;99.90;;;;;;5037108;28;20453;-72
2024/02/13 00:55:07;;;;;;;26.42;15.55;;;6.40;99.90;;;;;;5033522;28;20402;-71
2024/02/13 00:57:33;;;;;;;23.45;15.18;;;6.40;99.90;;;;;;5033837;28;20036;-69
2024/02/13 00:59:59;;;;;;;25.60;14.60;;;6.50;99.90;;;;;;5037678;28;20029;-69
2024/02/13 01:02:26;;;;;;;24.25;14.05;;;6.40;99.90;;;;;;5035333;28;20102;-72
2024/02/13 01:04:51;;;;;;;27.83;14.43;;;6.40;99.90;;;;;;5033352;28;20048;-78
2024/02/13 01:07:18;;;;;;;25.92;13.40;;;6.40;99.90;;;;;;5037044;28;20427;-77
2024/02/13 01:09:43;;;;;;;22.00;13.13;;;6.40;99.90;;;;;;5038606;28;20040;-73
2024/02/13 01:12:09;;;;;;;33.17;15.68;;;6.30;99.90;;;;;;5035982;28;20035;-73
2024/02/13 01:14:36;;;;;;;26.58;13.45;;;6.40;99.90;;;;;;5039894;28;20025;-77
2024/02/13 01:17:04;;;;;;;25.90;13.02;;;6.40;99.90;;;;;;5038294;28;20529;-73
2024/02/13 01:19:31;;;;;;;21.05;13.57;;;6.40;99.90;;;;;;5033832;28;20044;-79
2024/02/13 01:21:57;;;;;;;27.45;14.35;;;6.30;99.90;;;;;;5036681;28;20452;-82
2024/02/13 01:24:26;;;;;;;23.98;13.55;;;6.30;99.90;;;;;;5030871;28;20652;-78
2024/02/13 01:26:53;;;;;;;29.65;13.88;;;6.30;99.90;;;;;;5031072;28;20045;-78
2024/02/13 01:29:19;;;;;;;27.33;14.68;;;6.30;99.90;;;;;;5032728;28;20021;-79
2024/02/13 01:31:47;;;;;;;29.45;14.60;;;6.20;99.90;;;;;;5036564;28;20032;-82
2024/02/13 01:34:13;;;;;;;30.67;14.43;;;6.10;99.90;;;;;;5032940;28;20032;-76
2024/02/13 01:36:39;;;;;;;26.35;14.57;;;6.20;99.90;;;;;;5039992;28;20056;-80
2024/02/13 01:39:05;;;;;;;30.13;14.73;;;6.30;99.90;;;;;;5037487;28;20438;-78
2024/02/13 01:41:31;;;;;;;27.38;15.35;;;6.20;99.90;;;;;;5038873;28;20021;-79
2024/02/13 01:43:57;;;;;;;27.55;15.60;;;6.20;99.90;;;;;;5038155;28;20056;-80
2024/02/13 01:46:26;;;;;;;31.45;16.70;;;6.20;99.90;;;;;;5037192;28;20018;-83
2024/02/13 01:48:56;;;;;;;31.10;17.40;;;6.30;99.90;;;;;;5038489;28;20449;-76
2024/02/13 01:51:27;;;;;;;33.97;17.60;;;6.30;99.90;;;;;;5037714;28;20016;-79
2024/02/13 01:53:55;;;;;;;28.17;16.67;;;6.30;99.90;;;;;;5040741;28;20025;-74
2024/02/13 01:56:24;;;;;;;29.13;16.77;;;6.30;99.90;;;;;;5039302;28;20017;-81
2024/02/13 01:58:52;;;;;;;32.17;16.58;;;6.30;99.90;;;;;;5040323;28;20420;-82
2024/02/13 02:01:18;;;;;;;35.13;17.30;;;6.30;99.90;;;;;;5041626;28;20029;-78
2024/02/13 02:03:44;;;;;;;29.67;16.23;;;6.30;99.90;;;;;;5040937;28;20036;-77
2024/02/13 02:06:10;;;;;;;30.15;17.48;;;6.40;99.90;;;;;;5039302;28;20025;-83
2024/02/13 02:08:37;;;;;;;31.02;17.83;;;6.30;99.90;;;;;;5036902;28;20029;-83
2024/02/13 02:11:03;;;;;;;31.63;17.40;;;6.30;99.90;;;;;;5041774;28;20061;-83
2024/02/13 02:13:31;;;;;;;31.58;18.35;;;6.30;99.90;;;;;;5037324;28;20029;-74
2024/02/13 02:15:57;;;;;;;34.63;18.20;;;6.30;99.90;;;;;;5040120;28;20068;-73
2024/02/13 02:18:24;;;;;;;37.22;18.00;;;6.30;99.90;;;;;;5040648;28;20063;-76
2024/02/13 02:20:49;;;;;;;31.75;17.35;;;6.30;99.90;;;;;;5037892;28;20048;-72
2024/02/13 02:23:19;;;;;;;30.13;17.50;;;6.30;99.90;;;;;;5038996;28;20048;-73
2024/02/13 02:25:47;;;;;;;30.73;17.13;;;6.30;99.90;;;;;;5036252;28;20025;-73
2024/02/13 02:28:16;;;;;;;29.48;17.20;;;6.30;99.90;;;;;;5040296;28;20021;-76
2024/02/13 02:30:44;;;;;;;29.38;17.27;;;6.30;99.90;;;;;;5040110;28;20080;-80
2024/02/13 02:33:13;;;;;;;28.83;16.52;;;6.30;99.90;;;;;;5036983;28;20021;-81
2024/02/13 02:35:42;;;;;;;29.38;17.88;;;6.40;99.90;;;;;;5036885;28;20030;-73
2024/02/13 02:38:13;;;;;;;32.05;17.08;;;6.40;99.90;;;;;;5035889;28;20033;-77
2024/02/13 02:40:38;;;;;;;27.63;16.27;;;6.40;99.90;;;;;;5037563;28;20038;-78
2024/02/13 02:43:04;;;;;;;29.40;16.27;;;6.40;99.90;;;;;;5041818;28;20033;-73
2024/02/13 02:45:30;;;;;;;34.20;17.75;;;6.30;99.90;;;;;;5038247;28;20025;-78
2024/02/13 02:47:56;;;;;;;29.23;18.70;;;6.30;99.90;;;;;;5037281;28;20573;-83
2024/02/13 02:50:22;;;;;;;35.47;17.13;;;6.30;99.90;;;;;;5037978;28;20025;-81
2024/02/13 02:52:49;;;;;;;34.35;18.52;;;6.30;99.90;;;;;;5041017;28;20105;-82
2024/02/13 02:55:17;;;;;;;30.08;17.88;;;6.30;99.90;;;;;;5033124;28;20044;-80
2024/02/13 02:57:43;;;;;;;31.40;17.67;;;6.20;99.90;;;;;;5034647;28;20470;-82
2024/02/13 03:00:10;;;;;;;30.38;17.70;;;6.20;99.90;;;;;;5038799;28;20082;-76
2024/02/13 03:02:40;;;;;;;27.70;16.63;;;6.30;99.90;;;;;;5037422;28;20045;-80
2024/02/13 03:05:07;;;;;;;29.63;16.55;;;6.20;99.90;;;;;;5034941;28;20026;-80
2024/02/13 03:07:33;;;;;;;30.85;16.75;;;6.20;99.90;;;;;;5020277;28;20071;-79
2024/02/13 03:10:00;;;;;;;29.65;17.90;;;6.20;99.90;;;;;;5020236;28;20056;-83
2024/02/13 03:12:26;;;;;;;31.08;17.35;;;6.10;99.90;;;;;;5031039;28;20033;-83
2024/02/13 03:14:54;;;;;;;25.73;16.33;;;6.20;99.90;;;;;;5031807;28;20029;-85
2024/02/13 03:17:23;;;;;;;30.55;17.35;;;6.20;99.90;;;;;;5032416;28;20097;-84
2024/02/13 03:19:49;;;;;;;33.55;17.30;;;6.20;99.90;;;;;;5032567;28;20030;-81
2024/02/13 03:22:16;;;;;;;29.02;16.27;;;6.20;99.90;;;;;;5031843;28;20498;-84
2024/02/13 03:24:43;;;;;;;29.77;17.08;;;6.20;99.90;;;;;;5033398;28;20744;-80
2024/02/13 03:27:09;;;;;;;31.70;17.15;;;6.20;99.90;;;;;;5030983;28;20024;-78
2024/02/13 03:29:34;;;;;;;28.05;15.82;;;6.30;99.90;;;;;;5031665;28;20034;-83
2024/02/13 03:32:00;;;;;;;29.30;15.93;;;6.20;99.90;;;;;;5030753;28;20029;-84
2024/02/13 03:34:26;;;;;;;28.02;15.52;;;6.20;99.90;;;;;;5029022;28;20037;-81
2024/02/13 03:36:51;;;;;;;29.67;15.55;;;6.20;99.90;;;;;;5029646;28;20071;-82
2024/02/13 03:39:17;;;;;;;30.63;16.20;;;6.30;99.90;;;;;;5032447;28;20479;-80
2024/02/13 03:41:45;;;;;;;31.83;15.27;;;6.20;99.90;;;;;;5032767;28;20028;-82
2024/02/13 03:44:11;;;;;;;27.45;15.80;;;6.30;99.90;;;;;;5033238;28;20389;-83
2024/02/13 03:46:42;;;;;;;28.30;15.35;;;6.20;99.90;;;;;;5033107;28;20534;-84
2024/02/13 03:49:11;;;;;;;27.55;14.45;;;6.20;99.90;;;;;;5032757;28;20828;-81
2024/02/13 03:51:40;;;;;;;26.42;15.27;;;6.20;99.90;;;;;;5032922;28;20071;-84
2024/02/13 03:54:07;;;;;;;31.13;15.70;;;6.20;99.90;;;;;;5032972;28;20083;-83
2024/02/13 03:56:34;;;;;;;23.45;14.10;;;6.10;99.90;;;;;;5031416;28;20017;-82
2024/02/13 03:58:59;;;;;;;28.85;14.32;;;6.10;99.90;;;;;;5032491;28;20390;-77
2024/02/13 04:01:26;;;;;;;26.52;15.50;;;6.10;99.90;;;;;;5032631;28;20033;-81
2024/02/13 04:03:51;;;;;;;29.55;14.90;;;6.10;99.90;;;;;;5032965;28;20529;-84
2024/02/13 04:06:17;;;;;;;33.67;13.88;;;6.00;99.90;;;;;;5031781;28;20033;-84
2024/02/13 04:08:44;;;;;;;29.63;14.52;;;6.10;99.90;;;;;;5032778;28;20068;-76
2024/02/13 04:11:10;;;;;;;28.15;13.63;;;6.10;99.90;;;;;;5030905;28;20029;-84
2024/02/13 04:13:36;;;;;;;29.45;14.55;;;6.10;99.90;;;;;;5032922;28;20018;-84
2024/02/13 04:16:02;;;;;;;31.95;12.95;;;6.10;99.90;;;;;;5032630;28;20030;-83
2024/02/13 04:18:27;;;;;;;24.90;12.77;;;6.10;99.90;;;;;;5032681;28;20514;-85
2024/02/13 04:20:53;;;;;;;26.40;12.82;;;6.00;99.90;;;;;;5031260;28;20033;-81
2024/02/13 04:23:19;;;;;;;30.45;13.68;;;6.00;99.90;;;;;;5032687;28;20437;-84
2024/02/13 04:25:45;;;;;;;28.27;13.13;;;6.00;99.90;;;;;;5025768;28;20120;-84
2024/02/13 04:28:10;;;;;;;25.77;13.07;;;6.00;99.90;;;;;;5014289;28;20030;-83
2024/02/13 04:30:40;;;;;;;29.58;12.90;;;6.00;99.90;;;;;;5012949;28;20054;-84
2024/02/13 04:33:09;;;;;;;27.42;11.77;;;6.00;99.90;;;;;;5012917;28;20025;-81
2024/02/13 04:35:36;;;;;;;31.15;12.98;;;6.00;99.90;;;;;;5012793;28;20049;-82
2024/02/13 04:38:03;;;;;;;24.75;11.85;;;5.90;99.90;;;;;;5012815;28;20022;-78
2024/02/13 04:40:29;;;;;;;30.83;12.05;;;5.90;99.90;;;;;;5024777;28;20571;-83
2024/02/13 04:42:54;;;;;;;26.75;11.55;;;5.90;99.90;;;;;;5032446;28;20021;-85
2024/02/13 04:45:23;;;;;;;26.38;10.98;;;5.90;99.90;;;;;;5032219;28;20061;-84
2024/02/13 04:47:48;;;;;;;23.50;10.90;;;5.80;99.90;;;;;;5031356;28;20033;-72
2024/02/13 04:50:14;;;;;;;26.98;11.90;;;5.90;99.90;;;;;;5032261;28;20033;-84
2024/02/13 04:52:40;;;;;;;24.58;11.43;;;5.80;99.90;;;;;;5032201;28;20433;-73
2024/02/13 04:55:06;;;;;;;22.00;9.63;;;5.80;99.90;;;;;;5032167;28;20040;-77
2024/02/13 04:57:33;;;;;;;25.83;11.15;;;5.80;99.90;;;;;;5031900;28;20482;-80
2024/02/13 05:00:13;;;;;;;31.52;10.82;;;5.80;99.90;;;;;;5025976;28;20475;-78
2024/02/13 05:02:42;;;;;;;25.20;10.50;;;5.80;99.90;;;;;;5012535;28;20030;-85
2024/02/13 05:07:52;;;;;;;23.15;9.82;;;5.70;99.90;;;;;;5031278;28;20037;-85
2024/02/13 05:10:17;;;;;;;25.15;10.00;;;5.80;99.90;;;;;;5031130;28;20021;-74
2024/02/13 05:12:44;;;;;;;27.77;10.43;;;5.80;99.90;;;;;;5031728;28;20045;-84
2024/02/13 05:15:10;;;;;;;28.38;11.18;;;5.70;99.90;;;;;;5029935;28;20033;-85
2024/02/13 05:17:36;;;;;;;23.60;9.88;;;5.70;99.90;;;;;;5021842;28;20460;-85
2024/02/13 05:20:03;;;;;;;26.60;10.57;;;5.70;99.90;;;;;;5035515;28;20069;-84
2024/02/13 05:22:28;;;;;;;23.35;9.30;;;5.70;99.90;;;;;;5022258;28;20026;-84
2024/02/13 05:24:54;;;;;;;24.73;9.85;;;5.60;99.90;;;;;;5027601;28;20036;-82
2024/02/13 05:27:20;;;;;;;25.20;9.68;;;5.70;99.90;;;;;;5035113;28;20028;-82
2024/02/13 05:29:46;;;;;;;25.00;9.55;;;5.60;99.90;;;;;;5023419;28;20029;-82
2024/02/13 05:32:14;;;;;;;26.85;10.02;;;5.60;99.90;;;;;;5033420;28;20033;-83
2024/02/13 05:34:40;;;;;;;26.33;9.45;;;5.60;99.90;;;;;;5024361;28;20071;-80
2024/02/13 05:37:05;;;;;;;28.13;10.02;;;5.60;99.90;;;;;;5030763;28;20499;-82
2024/02/13 05:39:31;;;;;;;23.90;8.48;;;5.70;99.90;;;;;;5025831;28;20037;-84
2024/02/13 05:41:57;;;;;;;23.80;8.07;;;5.60;99.90;;;;;;5028953;28;20132;-85
2024/02/13 05:44:24;;;;;;;25.10;9.30;;;5.70;99.90;;;;;;5032503;28;20487;-84
2024/02/13 05:46:51;;;;;;;24.17;8.05;;;5.70;99.90;;;;;;5021097;28;20032;-86
2024/02/13 05:49:17;;;;;;;22.00;8.23;;;5.70;99.90;;;;;;5029162;28;20025;-84
2024/02/13 05:51:46;;;;;;;20.48;8.38;;;5.60;99.90;;;;;;5028038;28;20043;-81
2024/02/13 05:54:13;;;;;;;18.52;8.40;;;5.60;99.90;;;;;;5032758;28;20021;-82
2024/02/13 05:56:39;;;;;;;21.17;7.78;;;5.70;99.90;;;;;;5034647;28;20053;-79
2024/02/13 05:59:05;;;;;;;15.07;7.47;;;5.60;99.90;;;;;;5032521;28;20103;-84
2024/02/13 06:01:31;;;;;;;23.45;7.63;;;5.60;99.90;;;;;;5032520;28;20037;-84
2024/02/13 06:04:01;;;;;;;20.35;8.15;;;5.60;99.90;;;;;;5035227;28;20120;-83
2024/02/13 06:06:27;;;;;;;20.65;9.80;;;5.70;99.90;;;;;;5034176;28;20449;-85
2024/02/13 06:08:54;;;;;;;16.05;7.05;;;5.60;99.90;;;;;;5035198;28;20040;-85
2024/02/13 06:11:20;;;;;;;21.65;7.43;;;5.50;99.90;;;;;;5034904;28;20459;-84
2024/02/13 06:13:49;;;;;;;16.50;6.57;;;5.50;99.90;;;;;;5035137;28;20091;-85
2024/02/13 06:16:18;;;;;;;16.92;6.22;;;5.50;99.90;;;;;;5034778;28;20028;-80
2024/02/13 06:18:47;;;;;;;12.55;6.05;;;5.60;99.90;;;;;;5035232;28;20029;-83
2024/02/13 06:21:18;;;;;;;15.68;6.63;;;5.60;99.90;;;;;;5021311;28;20044;-85
2024/02/13 06:23:44;;;;;;;19.90;6.60;;;5.50;99.90;;;;;;5034969;28;20026;-85
2024/02/13 06:26:11;;;;;;;13.57;6.43;;;5.50;99.90;;;;;;5033309;28;20047;-79
2024/02/13 06:28:37;;;;;;;16.50;7.00;;;5.50;99.90;;;;;;5033773;28;20474;-85
2024/02/13 06:31:06;;;;;;;17.08;7.53;;;5.50;99.90;;;;;;5033995;28;20030;-84
2024/02/13 06:33:32;;;;;;;18.77;6.88;;;5.50;99.90;;;;;;5033209;28;20028;-85
2024/02/13 06:35:58;;;;;;;18.83;6.25;;;5.50;99.90;;;;;;5034352;28;20025;-85
2024/02/13 06:38:24;;;;;;;18.55;7.70;;;5.50;99.90;;;;;;5034163;28;20025;-85
2024/02/13 06:40:54;;;;;;;23.48;7.35;;;5.50;99.90;;;;;;5034510;28;20033;-85
2024/02/13 06:43:20;;;;;;;17.52;6.82;;;5.50;99.90;;;;;;5034155;28;20091;-83
2024/02/13 06:45:47;;;;;;;21.20;7.20;;;5.50;99.90;;;;;;5034623;28;20026;-85
2024/02/13 06:48:13;;;;;;;24.35;8.95;;;5.60;99.90;;;;;;5034094;28;20021;-85
2024/02/13 06:50:40;;;;;;;20.35;7.18;;;5.50;99.90;;;;;;5033908;28;20352;-84
2024/02/13 06:53:07;;;;;;;13.80;6.70;;;5.60;99.90;;;;;;5033866;28;20455;-85
2024/02/13 06:55:34;;;;;;;17.88;7.10;;;5.60;99.90;;;;;;5034109;28;20017;-86
2024/02/13 06:57:59;;;;;;;17.45;6.95;;;5.60;99.90;;;;;;5032581;28;20608;-83
2024/02/13 07:00:26;;;;;;;14.70;6.40;;;5.60;99.90;;;;;;5031508;28;20037;-86
2024/02/13 07:02:54;;;;;;;19.25;6.07;;;5.70;99.90;;;;;;5026140;28;20048;-83
2024/02/13 07:05:20;;;;;;;17.05;6.38;;;5.70;99.90;;;;;;5014964;28;20030;-85
2024/02/13 07:07:46;;;;;;;16.52;5.80;;;5.60;99.90;;;;;;5030483;28;20100;-83
2024/02/13 07:10:12;;;;;;;17.30;5.35;;;5.70;99.90;;;;;;5029194;28;20026;-85
2024/02/13 07:12:38;;;;;;;20.20;6.20;;;5.60;99.90;;;;;;5032961;28;20033;-83
2024/02/13 07:15:05;;;;;;;19.80;6.00;;;5.70;99.90;;;;;;5028649;28;20029;-83
2024/02/13 07:17:31;;;;;;;15.07;5.30;;;5.70;99.90;;;;;;5030126;28;20526;-75
2024/02/13 07:19:59;;;;;;;15.60;5.68;;;5.60;99.90;;;;;;5031565;28;20501;-78
2024/02/13 07:22:25;;;;;;;17.75;5.97;;;5.60;99.90;;;;;;5033372;28;20017;-71
2024/02/13 07:24:51;;;;;;;18.92;6.30;;;5.70;99.90;;;;;;5032838;28;20025;-79
2024/02/13 07:27:17;;;;;;;15.02;5.85;;;5.60;99.90;;;;;;5033071;28;20096;-79
2024/02/13 07:29:43;;;;;;;17.60;6.28;;;5.70;99.90;;;;;;5033302;28;20159;-82
2024/02/13 07:32:10;;;;;;;16.63;7.05;;;5.60;99.90;;;;;;5032855;28;20021;-84
2024/02/13 07:34:40;;;;;;;11.75;6.30;;;5.50;99.90;;;;;;5031778;28;20035;-76
2024/02/13 07:37:07;;;;;;;16.17;6.47;;;5.60;99.90;;;;;;5032596;28;20486;-85
2024/02/13 07:39:33;;;;;;;13.25;6.18;;;5.60;99.90;;;;;;5030585;28;20075;-78
2024/02/13 07:41:59;;;;;;;11.98;6.43;;;5.60;99.90;;;;;;5029766;28;20028;-86
2024/02/13 07:44:48;;;;;;;20.10;6.28;;;5.60;99.90;;;;;;5032264;28;20025;-74
2024/02/13 07:47:14;;;;;;;11.20;5.78;;;5.60;99.90;;;;;;5023992;28;20034;-85
2024/02/13 07:49:40;;;;;;;16.38;5.90;;;5.70;99.90;;;;;;5024397;28;20029;-85
2024/02/13 07:52:05;;;;;;;14.88;5.72;;;5.60;99.90;;;;;;5042792;28;20025;-83
2024/02/13 07:54:31;;;;;;;12.27;5.72;;;5.60;99.90;;;;;;5044370;28;20033;-85
2024/02/13 07:56:58;;;;;;;12.85;5.20;;;5.70;99.90;;;;;;5030700;28;20029;-77
2024/02/13 07:59:24;;;;;;;12.65;6.10;;;5.70;99.90;;;;;;5034163;28;20037;-80
2024/02/13 08:01:50;;;;;;;13.13;5.88;;;5.60;99.90;;;;;;5031677;28;20036;-79
2024/02/13 08:04:16;;;;;;;13.25;6.18;;;5.70;99.90;;;;;;5031623;28;20025;-78
2024/02/13 08:06:41;;;;;;;13.70;5.25;;;5.70;99.90;;;;;;5022478;28;20083;-79
2024/02/13 08:09:08;;;;;;;12.82;5.63;;;5.70;99.90;;;;;;5037866;28;20025;-78
2024/02/13 08:11:34;;;;;;;16.30;5.93;;;5.70;99.90;;;;;;5024244;28;20024;-79
2024/02/13 08:14:00;;;;;;;14.35;6.28;;;5.80;99.90;;;;;;5026948;28;20076;-79
2024/02/13 08:16:29;;;;;;;15.18;6.10;;;5.70;99.90;;;;;;5030103;28;20025;-78
2024/02/13 08:18:55;;;;;;;13.52;5.07;;;5.70;99.90;;;;;;5030853;28;20026;-75
2024/02/13 08:21:22;;;;;;;13.98;5.47;;;5.80;99.90;;;;;;5032395;28;20063;-81
2024/02/13 08:23:47;;;;;;;9.23;5.07;;;5.80;99.90;;;;;;5027978;28;20124;-83
2024/02/13 08:26:13;;;;;;;13.57;5.13;;;5.90;99.90;;;;;;5028093;28;20517;-80
2024/02/13 08:28:43;;;;;;;13.00;4.93;;;6.00;99.90;;;;;;5016303;28;20466;-79
2024/02/13 08:31:09;;;;;;;18.25;5.93;;;6.00;99.90;;;;;;5019023;28;20491;-79
2024/02/13 08:33:35;;;;;;;15.45;4.78;;;6.00;99.90;;;;;;5016507;28;20144;-82
2024/02/13 08:36:01;;;;;;;12.55;5.50;;;6.10;99.90;;;;;;5021726;28;20112;-82
2024/02/13 08:38:27;;;;;;;16.77;6.07;;;6.10;99.90;;;;;;5019526;28;20680;-83
2024/02/13 08:40:53;;;;;;;16.05;5.30;;;6.20;99.90;;;;;;5008144;28;20096;-83
2024/02/13 08:43:19;;;;;;;13.52;5.68;;;6.30;99.90;;;;;;5029695;28;20028;-83
2024/02/13 08:45:45;;;;;;;10.85;5.22;;;6.40;99.90;;;;;;5030234;28;20033;-83
2024/02/13 08:48:11;;;;;;;10.02;4.78;;;6.50;99.90;;;;;;5031627;28;20172;-83
2024/02/13 08:50:37;;;;;;;11.07;5.18;;;6.60;99.90;;;;;;5030171;28;20115;-83
2024/02/13 08:53:02;;;;;;;10.60;4.35;;;6.70;99.90;;;;;;5033284;28;20494;-82
2024/02/13 08:55:28;;;;;;;9.32;4.28;;;6.70;99.90;;;;;;5035891;28;20044;-83
2024/02/13 08:57:54;;;;;;;16.02;5.10;;;6.70;99.90;;;;;;5035794;28;20017;-78
2024/02/13 09:00:20;;;;;;;10.15;5.32;;;6.80;99.90;;;;;;5035187;28;20493;-82
2024/02/13 09:02:47;;;;;;;13.27;4.82;;;6.80;99.90;;;;;;5035696;28;20029;-84
2024/02/13 09:05:13;;;;;;;10.27;4.60;;;6.90;99.90;;;;;;5035475;28;20044;-81
2024/02/13 09:07:40;;;;;;;8.57;4.30;;;7.10;99.90;;;;;;5035788;28;20029;-85
2024/02/13 09:10:06;;;;;;;10.23;5.05;;;7.20;99.90;;;;;;5031629;28;20021;-81
2024/02/13 09:12:33;;;;;;;10.45;4.50;;;7.30;99.90;;;;;;5034316;28;20056;-84
2024/02/13 09:14:59;;;;;;;13.93;4.47;;;7.30;99.90;;;;;;5035216;28;20088;-83
2024/02/13 09:17:26;;;;;;;11.07;5.25;;;7.40;99.90;;;;;;5035682;28;20032;-83
2024/02/13 09:19:51;;;;;;;9.27;4.32;;;7.40;99.90;;;;;;5033337;28;20571;-84
2024/02/13 09:22:17;;;;;;;13.93;4.82;;;7.50;99.90;;;;;;5034213;28;20021;-83
2024/02/13 09:24:50;;;;;;;11.02;4.25;;;7.50;99.90;;;;;;5038159;28;20401;-80
2024/02/13 09:27:18;;;;;;;11.63;5.03;;;7.60;99.90;;;;;;5034058;28;20037;-83
2024/02/13 09:29:44;;;;;;;10.43;4.63;;;7.60;99.90;;;;;;5033484;28;20060;-83
2024/02/13 09:32:10;;;;;;;9.65;4.88;;;7.60;99.90;;;;;;5033653;28;20064;-84
2024/02/13 09:34:37;;;;;;;7.10;3.53;;;7.70;99.90;;;;;;5027027;28;20026;-84
2024/02/13 09:37:03;;;;;;;9.07;3.78;;;7.90;99.90;;;;;;5034720;28;20049;-82
2024/02/13 09:39:29;;;;;;;7.47;4.10;;;8.00;99.90;;;;;;5021447;28;20033;-83
2024/02/13 09:41:56;;;;;;;11.88;4.30;;;8.20;99.90;;;;;;5026337;28;20025;-82
2024/02/13 09:44:23;;;;;;;12.07;4.60;;;8.30;99.90;;;;;;5033627;28;20021;-81
2024/02/13 09:46:53;;;;;;;9.15;4.28;;;8.40;99.90;;;;;;5028843;28;20048;-76
2024/02/13 09:49:21;;;;;;;7.32;3.75;;;8.50;99.90;;;;;;5029266;28;20037;-75
2024/02/13 09:51:50;;;;;;;9.25;4.20;;;8.50;99.90;;;;;;5033076;28;20020;-77
2024/02/13 09:54:18;;;;;;;11.63;3.90;;;8.60;99.90;;;;;;5024762;28;20475;-79
2024/02/13 09:56:44;;;;;;;9.55;4.32;;;8.80;99.90;;;;;;5021824;28;20053;-78
2024/02/13 09:59:11;;;;;;;10.00;3.88;;;8.70;99.90;;;;;;5034117;28;20479;-78
2024/02/13 10:01:38;;;;;;;14.63;4.10;;;8.80;99.90;;;;;;5020680;28;20041;-77
2024/02/13 10:04:04;;;;;;;22.38;4.40;;;8.90;99.90;;;;;;5031722;28;20013;-77
2024/02/13 10:06:30;;;;;;;16.35;4.25;;;9.00;99.90;;;;;;5033894;28;20125;-77
2024/02/13 10:08:55;;;;;;;11.00;3.60;;;9.20;99.90;;;;;;5033665;28;20032;-76
2024/02/13 10:11:36;;;;;;;9.23;3.50;;;9.30;99.90;;;;;;5033185;28;20021;-77
2024/02/13 10:14:03;;;;;;;5.90;2.75;;;9.40;99.90;;;;;;5032512;28;20025;-75
2024/02/13 10:16:29;;;;;;;6.57;2.83;;;9.40;99.90;;;;;;5032600;28;20028;-73
2024/02/13 10:19:05;;;;;;;10.27;3.20;;;9.50;99.90;;;;;;5031766;28;20029;-74
2024/02/13 10:21:30;;;;;;;8.80;3.00;;;9.60;99.90;;;;;;5032942;28;20041;-75
2024/02/13 10:24:13;;;;;;;5.72;2.70;;;9.70;99.90;;;;;;5032657;28;20022;-72
2024/02/13 10:26:39;;;;;;;;;;;9.80;99.90;;;;;;5029624;28;20393;-76
2024/02/13 10:29:05;;;;;;;12.65;2.72;;;9.90;99.90;;;;;;5033264;28;19917;-76
2024/02/13 10:31:37;;;;;;;5.80;3.28;;;9.90;99.90;;;;;;5029629;28;20041;-76
2024/02/13 10:34:04;;;;;;;9.30;3.08;;;9.80;99.90;;;;;;5033554;28;20020;-76
2024/02/13 10:36:32;;;;;;;10.10;3.20;;;9.90;99.90;;;;;;5026503;28;20038;-75
2024/02/13 10:39:11;;;;;;;24.42;4.75;;;9.90;99.90;;;;;;4996236;28;20108;-76
2024/02/13 10:41:41;;;;;;;12.27;3.35;;;10.10;99.90;;;;;;5008317;28;20099;-76
2024/02/13 10:44:13;;;;;;;7.78;2.50;;;10.30;99.90;;;;;;4984637;28;20047;-76
2024/02/13 10:46:40;;;;;;;15.48;4.75;;;10.30;99.90;;;;;;4942238;28;20025;-73
2024/02/13 10:49:19;;;;;;;23.27;7.47;;;10.40;99.90;;;;;;4932326;28;20063;-74
2024/02/13 10:51:46;;;;;;;11.43;3.47;;;10.50;99.90;;;;;;4943114;28;20471;-76
2024/02/13 10:54:15;;;;;;;23.02;5.93;;;10.70;99.90;;;;;;5039415;28;20125;-75
2024/02/13 10:56:41;;;;;;;16.30;4.03;;;10.90;99.90;;;;;;5035083;28;20025;-77
2024/02/13 10:59:08;;;;;;;11.60;3.63;;;11.00;99.90;;;;;;5035698;28;20479;-79
2024/02/13 11:01:38;;;;;;;7.90;2.95;;;11.10;99.90;;;;;;5044119;28;20443;-77
2024/02/13 11:04:04;;;;;;;11.75;2.25;;;11.10;99.90;;;;;;5039716;28;20021;-77
2024/02/13 11:06:32;;;;;;;5.07;2.17;;;11.10;99.90;;;;;;5037101;28;20099;-78
2024/02/13 11:08:58;;;;;;;7.32;2.00;;;11.20;99.90;;;;;;5035689;28;20035;-79
2024/02/13 11:11:25;;;;;;;7.00;2.40;;;11.20;99.90;;;;;;5041814;28;20414;-77
2024/02/13 11:13:51;;;;;;;12.23;2.58;;;11.30;99.90;;;;;;5039135;28;20079;-78
2024/02/13 11:16:20;;;;;;;9.25;1.95;;;11.40;99.90;;;;;;5034207;28;20033;-76
2024/02/13 11:18:51;;;;;;;13.10;2.63;;;11.40;99.90;;;;;;5035700;28;20025;-76
2024/02/13 11:21:26;;;;;;;7.13;2.03;;;11.40;99.90;;;;;;5031659;28;20025;-76
2024/02/13 11:23:59;;;;;;;4.80;2.25;;;11.50;99.90;;;;;;5032588;28;20040;-75
2024/02/13 11:26:36;;;;;;;8.38;2.28;;;11.40;99.90;;;;;;5037510;28;20033;-75
2024/02/13 11:29:13;;;;;;;4.93;1.70;;;11.50;99.90;;;;;;5034066;28;20031;-76
2024/02/13 11:31:39;;;;;;;6.00;1.95;;;11.40;99.90;;;;;;5038449;28;20029;-76
2024/02/13 11:34:09;;;;;;;8.57;1.92;;;11.50;99.90;;;;;;5039984;28;20033;-75
2024/02/13 11:36:35;;;;;;;2.15;1.17;;;11.60;99.90;;;;;;5032376;28;20025;-75
2024/02/13 11:39:06;;;;;;;3.22;1.50;;;11.60;99.90;;;;;;5030876;28;20021;-75
2024/02/13 11:41:36;;;;;;;6.18;1.90;;;11.70;99.90;;;;;;5036878;28;20022;-77
2024/02/13 11:44:09;;;;;;;5.25;1.38;;;11.80;99.90;;;;;;5040048;28;20034;-74
2024/02/13 11:46:38;;;;;;;5.50;1.67;;;11.70;99.90;;;;;;5038026;28;20036;-79
2024/02/13 11:49:11;;;;;;;4.70;1.45;;;11.90;99.90;;;;;;5033459;28;20036;-79
2024/02/13 11:51:37;;;;;;;6.15;1.40;;;12.00;99.90;;;;;;5040259;28;20014;-78
2024/02/13 11:54:05;;;;;;;4.53;1.92;;;12.00;99.90;;;;;;5037001;28;20029;-77
2024/02/13 11:56:32;;;;;;;5.18;1.42;;;12.00;99.90;;;;;;5041831;28;20029;-78
2024/02/13 11:59:07;;;;;;;9.32;1.88;;;12.00;99.90;;;;;;5041230;28;20028;-78
2024/02/13 12:01:36;;;;;;;7.88;1.30;;;12.00;99.90;;;;;;5036668;28;20045;-77
2024/02/13 12:04:11;;;;;;;5.57;1.33;;;12.00;99.90;;;;;;5038798;28;20017;-78
2024/02/13 12:06:39;;;;;;;6.20;1.35;;;12.00;99.90;;;;;;5036719;28;20071;-77
2024/02/13 12:09:07;;;;;;;9.45;1.23;;;12.00;99.90;;;;;;5036515;28;20071;-77
2024/02/13 12:11:35;;;;;;;9.70;1.13;;;12.00;99.90;;;;;;5038748;28;20424;-76
2024/02/13 12:14:03;;;;;;;3.35;1.10;;;12.00;99.90;;;;;;5037293;28;20021;-80
2024/02/13 12:16:32;;;;;;;6.30;1.40;;;11.90;99.90;;;;;;5037141;28;20377;-77
2024/02/13 12:18:59;;;;;;;3.47;1.25;;;12.00;99.90;;;;;;5036524;28;20025;-77
2024/02/13 12:21:26;;;;;;;4.85;1.25;;;12.00;99.90;;;;;;5034331;28;20021;-79
2024/02/13 12:23:53;;;;;;;1.92;1.00;;;12.10;99.90;;;;;;5035027;28;20013;-78
2024/02/13 12:26:19;;;;;;;3.42;1.63;;;12.00;99.90;;;;;;5034991;28;20083;-77
2024/02/13 12:28:58;;;;;;;4.47;1.17;;;12.20;99.90;;;;;;5037278;28;20029;-77
2024/02/13 12:31:29;;;;;;;5.07;1.23;;;12.40;99.90;;;;;;5040396;28;20562;-76
2024/02/13 12:34:05;;;;;;;4.75;1.10;;;12.40;99.90;;;;;;5038248;28;20083;-76
2024/02/13 12:36:31;;;;;;;2.78;1.10;;;12.40;99.90;;;;;;5033762;28;20056;-77
2024/02/13 12:39:16;;;;;;;4.30;1.10;;;12.30;99.90;;;;;;5036633;28;20036;-77
2024/02/13 12:41:45;;;;;;;6.75;1.67;;;12.40;99.90;;;;;;5039675;28;20040;-77
2024/02/13 12:44:13;;;;;;;3.78;1.15;;;12.40;99.90;;;;;;5036505;28;20084;-77
2024/02/13 12:46:40;;;;;;;4.97;1.27;;;12.40;99.90;;;;;;5038760;28;20079;-77